sensor_id;sensor_type;location;lat;lon;timestamp;P1;durP1;ratioP1;P2;durP2;ratioP2
40533;SDS011;26233;51.894;10.192;2022-12-29T00:01:53;1.90;;;1.70;;
40533;SDS011;26233;51.894;10.192;2022-12-29T00:04:21;1.77;;;1.65;;
40533;SDS011;26233;51.894;10.192;2022-12-29T00:06:48;1.80;;;1.70;;
40533;SDS011;26233;51.894;10.192;2022-12-29T00:09:15;1.65;;;1.55;;
40533;SDS011;26233;51.894;10.192;2022-12-29T00:11:43;1.70;;;1.60;;
40533;SDS011;26233;51.894;10.192;2022-12-29T00:14:10;1.60;;;1.50;;
40533;SDS011;26233;51.894;10.192;2022-12-29T00:16:57;4.03;;;1.95;;
40533;SDS011;26233;51.894;10.192;2022-12-29T00:19:24;2.33;;;1.90;;
40533;SDS011;26233;51.894;10.192;2022-12-29T00:22:09;1.70;;;1.60;;
40533;SDS011;26233;51.894;10.192;2022-12-29T00:24:54;1.55;;;1.45;;
40533;SDS011;26233;51.894;10.192;2022-12-29T00:27:39;1.95;;;1.85;;
40533;SDS011;26233;51.894;10.192;2022-12-29T00:30:24;1.75;;;1.58;;
40533;SDS011;26233;51.894;10.192;2022-12-29T00:33:10;2.55;;;1.85;;
40533;SDS011;26233;51.894;10.192;2022-12-29T00:35:56;1.75;;;1.45;;
40533;SDS011;26233;51.894;10.192;2022-12-29T00:38:28;1.73;;;1.63;;
40533;SDS011;26233;51.894;10.192;2022-12-29T00:41:15;2.50;;;1.83;;
40533;SDS011;26233;51.894;10.192;2022-12-29T00:43:59;1.75;;;1.65;;
40533;SDS011;26233;51.894;10.192;2022-12-29T00:46:35;1.70;;;1.60;;
40533;SDS011;26233;51.894;10.192;2022-12-29T00:49:04;1.80;;;1.70;;
40533;SDS011;26233;51.894;10.192;2022-12-29T00:51:50;1.70;;;1.60;;
40533;SDS011;26233;51.894;10.192;2022-12-29T00:54:18;1.73;;;1.63;;
40533;SDS011;26233;51.894;10.192;2022-12-29T00:56:45;1.83;;;1.73;;
40533;SDS011;26233;51.894;10.192;2022-12-29T00:59:13;1.60;;;1.50;;
40533;SDS011;26233;51.894;10.192;2022-12-29T01:01:40;1.83;;;1.70;;
40533;SDS011;26233;51.894;10.192;2022-12-29T01:04:09;2.22;;;1.85;;
40533;SDS011;26233;51.894;10.192;2022-12-29T01:06:37;1.80;;;1.70;;
40533;SDS011;26233;51.894;10.192;2022-12-29T01:09:06;1.75;;;1.60;;
40533;SDS011;26233;51.894;10.192;2022-12-29T01:11:52;2.25;;;1.80;;
40533;SDS011;26233;51.894;10.192;2022-12-29T01:14:19;1.60;;;1.50;;
40533;SDS011;26233;51.894;10.192;2022-12-29T01:16:47;1.77;;;1.67;;
40533;SDS011;26233;51.894;10.192;2022-12-29T01:19:17;2.08;;;1.88;;
40533;SDS011;26233;51.894;10.192;2022-12-29T01:21:44;2.25;;;1.90;;
40533;SDS011;26233;51.894;10.192;2022-12-29T01:24:12;1.70;;;1.60;;
40533;SDS011;26233;51.894;10.192;2022-12-29T01:26:40;1.92;;;1.75;;
40533;SDS011;26233;51.894;10.192;2022-12-29T01:29:07;1.77;;;1.67;;
40533;SDS011;26233;51.894;10.192;2022-12-29T01:31:36;1.67;;;1.58;;
40533;SDS011;26233;51.894;10.192;2022-12-29T01:34:03;1.65;;;1.50;;
40533;SDS011;26233;51.894;10.192;2022-12-29T01:36:32;1.85;;;1.75;;
40533;SDS011;26233;51.894;10.192;2022-12-29T01:39:00;1.88;;;1.67;;
40533;SDS011;26233;51.894;10.192;2022-12-29T01:41:27;2.50;;;1.67;;
40533;SDS011;26233;51.894;10.192;2022-12-29T01:43:55;1.60;;;1.50;;
40533;SDS011;26233;51.894;10.192;2022-12-29T01:46:26;1.70;;;1.52;;
40533;SDS011;26233;51.894;10.192;2022-12-29T01:48:57;1.92;;;1.65;;
40533;SDS011;26233;51.894;10.192;2022-12-29T01:51:33;2.08;;;1.50;;
40533;SDS011;26233;51.894;10.192;2022-12-29T01:54:04;1.85;;;1.60;;
40533;SDS011;26233;51.894;10.192;2022-12-29T01:56:37;1.73;;;1.63;;
40533;SDS011;26233;51.894;10.192;2022-12-29T01:59:04;2.03;;;1.83;;
40533;SDS011;26233;51.894;10.192;2022-12-29T02:01:37;1.65;;;1.55;;
40533;SDS011;26233;51.894;10.192;2022-12-29T02:04:04;1.83;;;1.70;;
40533;SDS011;26233;51.894;10.192;2022-12-29T02:06:33;1.98;;;1.77;;
40533;SDS011;26233;51.894;10.192;2022-12-29T02:09:06;1.80;;;1.70;;
40533;SDS011;26233;51.894;10.192;2022-12-29T02:11:33;1.70;;;1.55;;
40533;SDS011;26233;51.894;10.192;2022-12-29T02:14:05;1.70;;;1.40;;
40533;SDS011;26233;51.894;10.192;2022-12-29T02:16:40;2.75;;;2.10;;
40533;SDS011;26233;51.894;10.192;2022-12-29T02:19:46;2.70;;;1.65;;
40533;SDS011;26233;51.894;10.192;2022-12-29T02:22:55;1.48;;;1.38;;
40533;SDS011;26233;51.894;10.192;2022-12-29T02:25:57;1.70;;;1.60;;
40533;SDS011;26233;51.894;10.192;2022-12-29T02:32:02;1.67;;;1.55;;
40533;SDS011;26233;51.894;10.192;2022-12-29T02:34:36;1.70;;;1.60;;
40533;SDS011;26233;51.894;10.192;2022-12-29T02:37:15;1.90;;;1.50;;
40533;SDS011;26233;51.894;10.192;2022-12-29T02:39:47;1.73;;;1.63;;
40533;SDS011;26233;51.894;10.192;2022-12-29T02:42:23;2.28;;;1.58;;
40533;SDS011;26233;51.894;10.192;2022-12-29T02:45:02;1.75;;;1.65;;
40533;SDS011;26233;51.894;10.192;2022-12-29T02:47:36;2.05;;;1.70;;
40533;SDS011;26233;51.894;10.192;2022-12-29T02:50:07;1.48;;;1.38;;
40533;SDS011;26233;51.894;10.192;2022-12-29T02:52:44;1.65;;;1.55;;
40533;SDS011;26233;51.894;10.192;2022-12-29T02:55:16;1.90;;;1.70;;
40533;SDS011;26233;51.894;10.192;2022-12-29T02:57:42;1.85;;;1.50;;
40533;SDS011;26233;51.894;10.192;2022-12-29T03:00:10;1.60;;;1.50;;
40533;SDS011;26233;51.894;10.192;2022-12-29T03:02:56;1.92;;;1.50;;
40533;SDS011;26233;51.894;10.192;2022-12-29T03:05:55;1.65;;;1.55;;
40533;SDS011;26233;51.894;10.192;2022-12-29T03:08:37;1.55;;;1.45;;
40533;SDS011;26233;51.894;10.192;2022-12-29T03:11:11;1.75;;;1.48;;
40533;SDS011;26233;51.894;10.192;2022-12-29T03:13:55;2.30;;;1.60;;
40533;SDS011;26233;51.894;10.192;2022-12-29T03:16:46;1.50;;;1.40;;
40533;SDS011;26233;51.894;10.192;2022-12-29T03:19:18;1.40;;;1.30;;
40533;SDS011;26233;51.894;10.192;2022-12-29T03:21:49;1.60;;;1.30;;
40533;SDS011;26233;51.894;10.192;2022-12-29T03:24:40;1.65;;;1.45;;
40533;SDS011;26233;51.894;10.192;2022-12-29T03:27:13;1.50;;;1.40;;
40533;SDS011;26233;51.894;10.192;2022-12-29T03:29:45;1.40;;;1.30;;
40533;SDS011;26233;51.894;10.192;2022-12-29T03:32:17;1.42;;;1.33;;
40533;SDS011;26233;51.894;10.192;2022-12-29T03:34:48;1.55;;;1.38;;
40533;SDS011;26233;51.894;10.192;2022-12-29T03:37:17;1.50;;;1.40;;
40533;SDS011;26233;51.894;10.192;2022-12-29T03:39:51;1.58;;;1.40;;
40533;SDS011;26233;51.894;10.192;2022-12-29T03:42:23;2.05;;;1.17;;
40533;SDS011;26233;51.894;10.192;2022-12-29T03:44:54;1.40;;;1.30;;
40533;SDS011;26233;51.894;10.192;2022-12-29T03:47:23;1.33;;;1.23;;
40533;SDS011;26233;51.894;10.192;2022-12-29T03:49:53;1.50;;;1.20;;
40533;SDS011;26233;51.894;10.192;2022-12-29T03:52:20;1.30;;;1.20;;
40533;SDS011;26233;51.894;10.192;2022-12-29T03:54:47;1.20;;;1.10;;
40533;SDS011;26233;51.894;10.192;2022-12-29T03:57:14;1.83;;;1.20;;
40533;SDS011;26233;51.894;10.192;2022-12-29T03:59:41;1.25;;;1.15;;
40533;SDS011;26233;51.894;10.192;2022-12-29T04:02:08;1.20;;;1.10;;
40533;SDS011;26233;51.894;10.192;2022-12-29T04:04:35;1.23;;;1.10;;
40533;SDS011;26233;51.894;10.192;2022-12-29T04:07:03;1.73;;;1.20;;
40533;SDS011;26233;51.894;10.192;2022-12-29T04:09:31;1.90;;;1.30;;
40533;SDS011;26233;51.894;10.192;2022-12-29T04:11:58;1.35;;;1.25;;
40533;SDS011;26233;51.894;10.192;2022-12-29T04:14:25;1.35;;;1.20;;
40533;SDS011;26233;51.894;10.192;2022-12-29T04:16:52;1.30;;;1.20;;
40533;SDS011;26233;51.894;10.192;2022-12-29T04:19:21;1.15;;;1.05;;
40533;SDS011;26233;51.894;10.192;2022-12-29T04:21:48;1.20;;;1.10;;
40533;SDS011;26233;51.894;10.192;2022-12-29T04:24:16;1.30;;;1.20;;
40533;SDS011;26233;51.894;10.192;2022-12-29T04:26:43;1.85;;;1.20;;
40533;SDS011;26233;51.894;10.192;2022-12-29T04:29:11;1.05;;;1.02;;
40533;SDS011;26233;51.894;10.192;2022-12-29T04:31:37;1.20;;;1.05;;
40533;SDS011;26233;51.894;10.192;2022-12-29T04:34:04;1.10;;;1.00;;
40533;SDS011;26233;51.894;10.192;2022-12-29T04:36:32;1.10;;;1.00;;
40533;SDS011;26233;51.894;10.192;2022-12-29T04:38:59;1.30;;;1.17;;
40533;SDS011;26233;51.894;10.192;2022-12-29T04:41:27;1.55;;;1.00;;
40533;SDS011;26233;51.894;10.192;2022-12-29T04:43:54;1.60;;;1.15;;
40533;SDS011;26233;51.894;10.192;2022-12-29T04:46:21;1.45;;;1.05;;
40533;SDS011;26233;51.894;10.192;2022-12-29T04:48:48;1.00;;;0.90;;
40533;SDS011;26233;51.894;10.192;2022-12-29T04:51:16;1.30;;;1.20;;
40533;SDS011;26233;51.894;10.192;2022-12-29T04:53:43;1.20;;;1.10;;
40533;SDS011;26233;51.894;10.192;2022-12-29T04:56:09;1.30;;;1.20;;
40533;SDS011;26233;51.894;10.192;2022-12-29T04:58:38;1.10;;;1.00;;
40533;SDS011;26233;51.894;10.192;2022-12-29T05:01:05;2.63;;;1.20;;
40533;SDS011;26233;51.894;10.192;2022-12-29T05:03:32;1.10;;;1.00;;
40533;SDS011;26233;51.894;10.192;2022-12-29T05:06:00;1.42;;;1.33;;
40533;SDS011;26233;51.894;10.192;2022-12-29T05:08:28;1.20;;;1.10;;
40533;SDS011;26233;51.894;10.192;2022-12-29T05:10:55;1.17;;;1.00;;
40533;SDS011;26233;51.894;10.192;2022-12-29T05:13:22;1.20;;;1.10;;
40533;SDS011;26233;51.894;10.192;2022-12-29T05:15:50;1.40;;;0.98;;
40533;SDS011;26233;51.894;10.192;2022-12-29T05:18:18;1.30;;;1.00;;
40533;SDS011;26233;51.894;10.192;2022-12-29T05:20:45;1.00;;;0.80;;
40533;SDS011;26233;51.894;10.192;2022-12-29T05:23:13;1.40;;;1.00;;
40533;SDS011;26233;51.894;10.192;2022-12-29T05:25:40;0.95;;;0.90;;
40533;SDS011;26233;51.894;10.192;2022-12-29T05:28:10;0.70;;;0.70;;
40533;SDS011;26233;51.894;10.192;2022-12-29T05:30:37;0.88;;;0.88;;
40533;SDS011;26233;51.894;10.192;2022-12-29T05:33:05;0.80;;;0.80;;
40533;SDS011;26233;51.894;10.192;2022-12-29T05:35:32;1.10;;;0.88;;
40533;SDS011;26233;51.894;10.192;2022-12-29T05:37:59;1.17;;;0.90;;
40533;SDS011;26233;51.894;10.192;2022-12-29T05:40:26;0.70;;;0.70;;
40533;SDS011;26233;51.894;10.192;2022-12-29T05:42:53;1.65;;;0.82;;
40533;SDS011;26233;51.894;10.192;2022-12-29T05:45:20;1.17;;;0.88;;
40533;SDS011;26233;51.894;10.192;2022-12-29T05:47:47;1.48;;;0.93;;
40533;SDS011;26233;51.894;10.192;2022-12-29T05:50:16;0.80;;;0.80;;
40533;SDS011;26233;51.894;10.192;2022-12-29T05:52:43;0.80;;;0.80;;
40533;SDS011;26233;51.894;10.192;2022-12-29T05:55:10;0.77;;;0.70;;
40533;SDS011;26233;51.894;10.192;2022-12-29T05:57:40;0.68;;;0.68;;
40533;SDS011;26233;51.894;10.192;2022-12-29T06:00:08;0.75;;;0.70;;
40533;SDS011;26233;51.894;10.192;2022-12-29T06:02:36;0.80;;;0.80;;
40533;SDS011;26233;51.894;10.192;2022-12-29T06:05:03;1.10;;;0.90;;
40533;SDS011;26233;51.894;10.192;2022-12-29T06:07:32;0.70;;;0.70;;
40533;SDS011;26233;51.894;10.192;2022-12-29T06:09:59;1.27;;;0.75;;
40533;SDS011;26233;51.894;10.192;2022-12-29T06:12:26;0.73;;;0.73;;
40533;SDS011;26233;51.894;10.192;2022-12-29T06:14:53;0.80;;;0.70;;
40533;SDS011;26233;51.894;10.192;2022-12-29T06:17:20;1.15;;;0.88;;
40533;SDS011;26233;51.894;10.192;2022-12-29T06:19:47;0.60;;;0.60;;
40533;SDS011;26233;51.894;10.192;2022-12-29T06:22:14;0.70;;;0.70;;
40533;SDS011;26233;51.894;10.192;2022-12-29T06:24:43;0.80;;;0.80;;
40533;SDS011;26233;51.894;10.192;2022-12-29T06:27:10;0.70;;;0.70;;
40533;SDS011;26233;51.894;10.192;2022-12-29T06:29:43;0.60;;;0.60;;
40533;SDS011;26233;51.894;10.192;2022-12-29T06:32:10;0.73;;;0.73;;
40533;SDS011;26233;51.894;10.192;2022-12-29T06:34:37;0.60;;;0.60;;
40533;SDS011;26233;51.894;10.192;2022-12-29T06:37:04;0.70;;;0.70;;
40533;SDS011;26233;51.894;10.192;2022-12-29T06:39:31;0.63;;;0.63;;
40533;SDS011;26233;51.894;10.192;2022-12-29T06:41:59;1.65;;;0.80;;
40533;SDS011;26233;51.894;10.192;2022-12-29T06:44:26;0.70;;;0.70;;
40533;SDS011;26233;51.894;10.192;2022-12-29T06:46:53;0.75;;;0.75;;
40533;SDS011;26233;51.894;10.192;2022-12-29T06:49:22;1.52;;;0.75;;
40533;SDS011;26233;51.894;10.192;2022-12-29T06:51:51;0.65;;;0.65;;
40533;SDS011;26233;51.894;10.192;2022-12-29T06:54:18;0.70;;;0.70;;
40533;SDS011;26233;51.894;10.192;2022-12-29T06:56:45;0.70;;;0.70;;
40533;SDS011;26233;51.894;10.192;2022-12-29T06:59:13;0.60;;;0.60;;
40533;SDS011;26233;51.894;10.192;2022-12-29T07:01:40;1.10;;;0.70;;
40533;SDS011;26233;51.894;10.192;2022-12-29T07:04:07;0.52;;;0.52;;
40533;SDS011;26233;51.894;10.192;2022-12-29T07:06:36;0.70;;;0.70;;
40533;SDS011;26233;51.894;10.192;2022-12-29T07:09:05;0.70;;;0.70;;
40533;SDS011;26233;51.894;10.192;2022-12-29T07:11:35;1.52;;;0.63;;
40533;SDS011;26233;51.894;10.192;2022-12-29T07:14:03;0.70;;;0.70;;
40533;SDS011;26233;51.894;10.192;2022-12-29T07:16:31;0.60;;;0.60;;
40533;SDS011;26233;51.894;10.192;2022-12-29T07:18:59;0.70;;;0.70;;
40533;SDS011;26233;51.894;10.192;2022-12-29T07:21:26;0.73;;;0.63;;
40533;SDS011;26233;51.894;10.192;2022-12-29T07:23:53;0.80;;;0.80;;
40533;SDS011;26233;51.894;10.192;2022-12-29T07:26:20;0.60;;;0.60;;
40533;SDS011;26233;51.894;10.192;2022-12-29T07:28:47;1.58;;;0.70;;
40533;SDS011;26233;51.894;10.192;2022-12-29T07:31:15;0.93;;;0.70;;
40533;SDS011;26233;51.894;10.192;2022-12-29T07:33:48;0.68;;;0.68;;
40533;SDS011;26233;51.894;10.192;2022-12-29T07:36:16;0.47;;;0.47;;
40533;SDS011;26233;51.894;10.192;2022-12-29T07:38:44;1.15;;;0.60;;
40533;SDS011;26233;51.894;10.192;2022-12-29T07:41:11;0.63;;;0.60;;
40533;SDS011;26233;51.894;10.192;2022-12-29T07:43:38;0.57;;;0.57;;
40533;SDS011;26233;51.894;10.192;2022-12-29T07:46:05;0.70;;;0.70;;
40533;SDS011;26233;51.894;10.192;2022-12-29T07:48:34;0.70;;;0.70;;
40533;SDS011;26233;51.894;10.192;2022-12-29T07:51:02;0.47;;;0.47;;
40533;SDS011;26233;51.894;10.192;2022-12-29T07:53:29;0.60;;;0.60;;
40533;SDS011;26233;51.894;10.192;2022-12-29T07:55:56;0.60;;;0.60;;
40533;SDS011;26233;51.894;10.192;2022-12-29T07:58:25;0.90;;;0.75;;
40533;SDS011;26233;51.894;10.192;2022-12-29T08:00:52;0.70;;;0.70;;
40533;SDS011;26233;51.894;10.192;2022-12-29T08:03:20;0.70;;;0.70;;
40533;SDS011;26233;51.894;10.192;2022-12-29T08:05:47;0.70;;;0.70;;
40533;SDS011;26233;51.894;10.192;2022-12-29T08:08:16;0.85;;;0.77;;
40533;SDS011;26233;51.894;10.192;2022-12-29T08:10:43;0.95;;;0.70;;
40533;SDS011;26233;51.894;10.192;2022-12-29T08:13:10;0.75;;;0.75;;
40533;SDS011;26233;51.894;10.192;2022-12-29T08:15:39;0.80;;;0.80;;
40533;SDS011;26233;51.894;10.192;2022-12-29T08:18:07;0.77;;;0.77;;
40533;SDS011;26233;51.894;10.192;2022-12-29T08:20:34;1.02;;;0.90;;
40533;SDS011;26233;51.894;10.192;2022-12-29T08:23:01;1.15;;;1.00;;
40533;SDS011;26233;51.894;10.192;2022-12-29T08:25:30;1.58;;;0.98;;
40533;SDS011;26233;51.894;10.192;2022-12-29T08:27:57;0.82;;;0.80;;
40533;SDS011;26233;51.894;10.192;2022-12-29T08:30:24;0.95;;;0.80;;
40533;SDS011;26233;51.894;10.192;2022-12-29T08:32:51;0.80;;;0.80;;
40533;SDS011;26233;51.894;10.192;2022-12-29T08:35:18;1.10;;;0.90;;
40533;SDS011;26233;51.894;10.192;2022-12-29T08:37:45;1.30;;;1.00;;
40533;SDS011;26233;51.894;10.192;2022-12-29T08:40:12;1.33;;;1.00;;
40533;SDS011;26233;51.894;10.192;2022-12-29T08:42:41;1.25;;;0.90;;
40533;SDS011;26233;51.894;10.192;2022-12-29T08:45:08;1.00;;;0.90;;
40533;SDS011;26233;51.894;10.192;2022-12-29T08:47:36;1.10;;;1.00;;
40533;SDS011;26233;51.894;10.192;2022-12-29T08:50:06;1.02;;;0.93;;
40533;SDS011;26233;51.894;10.192;2022-12-29T08:52:33;1.23;;;0.90;;
40533;SDS011;26233;51.894;10.192;2022-12-29T08:55:00;1.05;;;0.90;;
40533;SDS011;26233;51.894;10.192;2022-12-29T08:57:27;0.90;;;0.90;;
40533;SDS011;26233;51.894;10.192;2022-12-29T08:59:55;0.80;;;0.80;;
40533;SDS011;26233;51.894;10.192;2022-12-29T09:02:22;0.90;;;0.90;;
40533;SDS011;26233;51.894;10.192;2022-12-29T09:04:49;2.05;;;0.90;;
40533;SDS011;26233;51.894;10.192;2022-12-29T09:07:17;0.90;;;0.90;;
40533;SDS011;26233;51.894;10.192;2022-12-29T09:09:44;1.20;;;1.10;;
40533;SDS011;26233;51.894;10.192;2022-12-29T09:12:11;0.63;;;0.63;;
40533;SDS011;26233;51.894;10.192;2022-12-29T09:14:38;1.15;;;0.80;;
40533;SDS011;26233;51.894;10.192;2022-12-29T09:17:06;0.80;;;0.80;;
40533;SDS011;26233;51.894;10.192;2022-12-29T09:19:51;0.70;;;0.70;;
40533;SDS011;26233;51.894;10.192;2022-12-29T09:22:18;1.30;;;0.80;;
40533;SDS011;26233;51.894;10.192;2022-12-29T09:24:48;0.80;;;0.80;;
40533;SDS011;26233;51.894;10.192;2022-12-29T09:27:15;0.70;;;0.70;;
40533;SDS011;26233;51.894;10.192;2022-12-29T09:29:42;0.90;;;0.57;;
40533;SDS011;26233;51.894;10.192;2022-12-29T09:32:10;0.50;;;0.50;;
40533;SDS011;26233;51.894;10.192;2022-12-29T09:34:37;1.13;;;0.73;;
40533;SDS011;26233;51.894;10.192;2022-12-29T09:37:04;0.60;;;0.60;;
40533;SDS011;26233;51.894;10.192;2022-12-29T09:39:31;0.60;;;0.60;;
40533;SDS011;26233;51.894;10.192;2022-12-29T09:42:00;0.70;;;0.70;;
40533;SDS011;26233;51.894;10.192;2022-12-29T09:44:38;1.25;;;0.50;;
40533;SDS011;26233;51.894;10.192;2022-12-29T09:47:18;0.95;;;0.70;;
40533;SDS011;26233;51.894;10.192;2022-12-29T09:49:47;0.57;;;0.57;;
40533;SDS011;26233;51.894;10.192;2022-12-29T09:52:20;0.50;;;0.50;;
40533;SDS011;26233;51.894;10.192;2022-12-29T09:54:51;0.50;;;0.50;;
40533;SDS011;26233;51.894;10.192;2022-12-29T09:57:24;0.82;;;0.60;;
40533;SDS011;26233;51.894;10.192;2022-12-29T09:59:55;0.60;;;0.60;;
40533;SDS011;26233;51.894;10.192;2022-12-29T10:02:34;0.73;;;0.70;;
40533;SDS011;26233;51.894;10.192;2022-12-29T10:05:12;0.63;;;0.63;;
40533;SDS011;26233;51.894;10.192;2022-12-29T10:07:49;0.73;;;0.73;;
40533;SDS011;26233;51.894;10.192;2022-12-29T10:10:28;0.60;;;0.60;;
40533;SDS011;26233;51.894;10.192;2022-12-29T10:13:04;0.70;;;0.52;;
40533;SDS011;26233;51.894;10.192;2022-12-29T10:15:49;1.20;;;0.60;;
40533;SDS011;26233;51.894;10.192;2022-12-29T10:18:40;0.50;;;0.50;;
40533;SDS011;26233;51.894;10.192;2022-12-29T10:21:22;0.65;;;0.50;;
40533;SDS011;26233;51.894;10.192;2022-12-29T10:24:04;0.70;;;0.50;;
40533;SDS011;26233;51.894;10.192;2022-12-29T10:26:38;0.68;;;0.60;;
40533;SDS011;26233;51.894;10.192;2022-12-29T10:29:11;0.55;;;0.55;;
40533;SDS011;26233;51.894;10.192;2022-12-29T10:31:43;0.77;;;0.50;;
40533;SDS011;26233;51.894;10.192;2022-12-29T10:34:19;0.47;;;0.47;;
40533;SDS011;26233;51.894;10.192;2022-12-29T10:36:51;0.77;;;0.70;;
40533;SDS011;26233;51.894;10.192;2022-12-29T10:39:26;0.70;;;0.50;;
40533;SDS011;26233;51.894;10.192;2022-12-29T10:42:01;0.75;;;0.70;;
40533;SDS011;26233;51.894;10.192;2022-12-29T10:44:37;0.60;;;0.50;;
40533;SDS011;26233;51.894;10.192;2022-12-29T10:47:05;0.63;;;0.60;;
40533;SDS011;26233;51.894;10.192;2022-12-29T10:49:39;0.60;;;0.45;;
40533;SDS011;26233;51.894;10.192;2022-12-29T10:52:08;0.40;;;0.40;;
40533;SDS011;26233;51.894;10.192;2022-12-29T10:54:38;0.57;;;0.47;;
40533;SDS011;26233;51.894;10.192;2022-12-29T10:57:14;1.17;;;0.70;;
40533;SDS011;26233;51.894;10.192;2022-12-29T10:59:51;1.08;;;0.73;;
40533;SDS011;26233;51.894;10.192;2022-12-29T11:02:23;1.15;;;0.50;;
40533;SDS011;26233;51.894;10.192;2022-12-29T11:05:13;0.60;;;0.50;;
40533;SDS011;26233;51.894;10.192;2022-12-29T11:07:47;0.65;;;0.50;;
40533;SDS011;26233;51.894;10.192;2022-12-29T11:10:17;0.43;;;0.40;;
40533;SDS011;26233;51.894;10.192;2022-12-29T11:12:57;0.90;;;0.70;;
40533;SDS011;26233;51.894;10.192;2022-12-29T11:15:28;0.73;;;0.52;;
40533;SDS011;26233;51.894;10.192;2022-12-29T11:18:07;0.70;;;0.52;;
40533;SDS011;26233;51.894;10.192;2022-12-29T11:20:50;0.60;;;0.60;;
40533;SDS011;26233;51.894;10.192;2022-12-29T11:23:24;0.90;;;0.73;;
40533;SDS011;26233;51.894;10.192;2022-12-29T11:26:07;1.50;;;0.80;;
40533;SDS011;26233;51.894;10.192;2022-12-29T11:28:41;0.80;;;0.80;;
40533;SDS011;26233;51.894;10.192;2022-12-29T11:31:10;0.95;;;0.82;;
40533;SDS011;26233;51.894;10.192;2022-12-29T11:33:43;0.70;;;0.70;;
40533;SDS011;26233;51.894;10.192;2022-12-29T11:36:13;0.80;;;0.80;;
40533;SDS011;26233;51.894;10.192;2022-12-29T11:38:45;0.75;;;0.73;;
40533;SDS011;26233;51.894;10.192;2022-12-29T11:41:19;0.65;;;0.65;;
40533;SDS011;26233;51.894;10.192;2022-12-29T11:43:49;0.70;;;0.70;;
40533;SDS011;26233;51.894;10.192;2022-12-29T11:46:18;0.82;;;0.80;;
40533;SDS011;26233;51.894;10.192;2022-12-29T11:48:52;1.23;;;0.80;;
40533;SDS011;26233;51.894;10.192;2022-12-29T11:51:25;0.73;;;0.70;;
40533;SDS011;26233;51.894;10.192;2022-12-29T11:53:56;1.58;;;1.05;;
40533;SDS011;26233;51.894;10.192;2022-12-29T11:56:35;0.80;;;0.70;;
40533;SDS011;26233;51.894;10.192;2022-12-29T12:05:03;1.20;;;0.85;;
40533;SDS011;26233;51.894;10.192;2022-12-29T12:07:41;1.42;;;1.00;;
40533;SDS011;26233;51.894;10.192;2022-12-29T12:10:13;0.77;;;0.70;;
40533;SDS011;26233;51.894;10.192;2022-12-29T12:12:49;0.90;;;0.80;;
40533;SDS011;26233;51.894;10.192;2022-12-29T12:15:25;0.93;;;0.60;;
40533;SDS011;26233;51.894;10.192;2022-12-29T12:17:57;0.85;;;0.70;;
40533;SDS011;26233;51.894;10.192;2022-12-29T12:20:34;1.08;;;0.80;;
40533;SDS011;26233;51.894;10.192;2022-12-29T12:23:14;1.33;;;0.70;;
40533;SDS011;26233;51.894;10.192;2022-12-29T12:25:56;1.45;;;0.70;;
40533;SDS011;26233;51.894;10.192;2022-12-29T12:28:33;0.80;;;0.80;;
40533;SDS011;26233;51.894;10.192;2022-12-29T12:31:12;1.65;;;0.80;;
40533;SDS011;26233;51.894;10.192;2022-12-29T12:33:50;0.75;;;0.70;;
40533;SDS011;26233;51.894;10.192;2022-12-29T12:39:36;1.05;;;0.80;;
40533;SDS011;26233;51.894;10.192;2022-12-29T12:42:17;0.88;;;0.70;;
40533;SDS011;26233;51.894;10.192;2022-12-29T12:45:15;1.83;;;0.80;;
40533;SDS011;26233;51.894;10.192;2022-12-29T12:48:10;0.93;;;0.80;;
40533;SDS011;26233;51.894;10.192;2022-12-29T12:51:01;0.95;;;0.85;;
40533;SDS011;26233;51.894;10.192;2022-12-29T12:53:42;1.30;;;0.88;;
40533;SDS011;26233;51.894;10.192;2022-12-29T12:56:26;1.67;;;0.70;;
40533;SDS011;26233;51.894;10.192;2022-12-29T12:59:17;0.77;;;0.70;;
40533;SDS011;26233;51.894;10.192;2022-12-29T13:02:08;1.48;;;1.00;;
40533;SDS011;26233;51.894;10.192;2022-12-29T13:05:19;1.15;;;0.80;;
40533;SDS011;26233;51.894;10.192;2022-12-29T13:08:19;2.17;;;0.98;;
40533;SDS011;26233;51.894;10.192;2022-12-29T13:11:02;1.35;;;0.90;;
40533;SDS011;26233;51.894;10.192;2022-12-29T13:13:51;0.85;;;0.65;;
40533;SDS011;26233;51.894;10.192;2022-12-29T13:16:34;1.00;;;0.80;;
40533;SDS011;26233;51.894;10.192;2022-12-29T13:19:10;1.50;;;0.80;;
40533;SDS011;26233;51.894;10.192;2022-12-29T13:21:46;2.42;;;0.85;;
40533;SDS011;26233;51.894;10.192;2022-12-29T13:24:27;1.60;;;0.75;;
40533;SDS011;26233;51.894;10.192;2022-12-29T13:27:03;1.77;;;0.90;;
40533;SDS011;26233;51.894;10.192;2022-12-29T13:29:43;0.70;;;0.68;;
40533;SDS011;26233;51.894;10.192;2022-12-29T13:32:21;1.73;;;0.95;;
40533;SDS011;26233;51.894;10.192;2022-12-29T13:35:02;1.20;;;0.80;;
40533;SDS011;26233;51.894;10.192;2022-12-29T13:37:53;1.65;;;0.80;;
40533;SDS011;26233;51.894;10.192;2022-12-29T13:40:24;1.08;;;0.80;;
40533;SDS011;26233;51.894;10.192;2022-12-29T13:42:53;1.38;;;0.98;;
40533;SDS011;26233;51.894;10.192;2022-12-29T13:45:24;1.60;;;0.90;;
40533;SDS011;26233;51.894;10.192;2022-12-29T13:47:54;1.25;;;0.80;;
40533;SDS011;26233;51.894;10.192;2022-12-29T13:50:27;1.83;;;1.17;;
40533;SDS011;26233;51.894;10.192;2022-12-29T13:52:59;1.50;;;1.00;;
40533;SDS011;26233;51.894;10.192;2022-12-29T13:55:44;1.50;;;0.90;;
40533;SDS011;26233;51.894;10.192;2022-12-29T13:58:17;1.50;;;1.13;;
40533;SDS011;26233;51.894;10.192;2022-12-29T14:00:55;1.30;;;1.00;;
40533;SDS011;26233;51.894;10.192;2022-12-29T14:06:18;1.73;;;1.10;;
40533;SDS011;26233;51.894;10.192;2022-12-29T14:08:49;2.03;;;1.08;;
40533;SDS011;26233;51.894;10.192;2022-12-29T14:11:20;0.88;;;0.82;;
40533;SDS011;26233;51.894;10.192;2022-12-29T14:13:51;1.75;;;0.98;;
40533;SDS011;26233;51.894;10.192;2022-12-29T14:16:33;2.35;;;0.93;;
40533;SDS011;26233;51.894;10.192;2022-12-29T14:19:05;0.80;;;0.80;;
40533;SDS011;26233;51.894;10.192;2022-12-29T14:21:39;2.00;;;0.95;;
40533;SDS011;26233;51.894;10.192;2022-12-29T14:24:27;1.38;;;0.80;;
40533;SDS011;26233;51.894;10.192;2022-12-29T14:33:19;1.48;;;0.80;;
40533;SDS011;26233;51.894;10.192;2022-12-29T14:35:49;1.00;;;0.90;;
40533;SDS011;26233;51.894;10.192;2022-12-29T14:44:00;2.13;;;1.00;;
40533;SDS011;26233;51.894;10.192;2022-12-29T14:46:42;1.38;;;0.85;;
40533;SDS011;26233;51.894;10.192;2022-12-29T14:49:18;1.52;;;1.13;;
40533;SDS011;26233;51.894;10.192;2022-12-29T14:51:48;1.33;;;0.90;;
40533;SDS011;26233;51.894;10.192;2022-12-29T14:57:31;1.40;;;0.90;;
40533;SDS011;26233;51.894;10.192;2022-12-29T15:00:06;1.42;;;0.85;;
40533;SDS011;26233;51.894;10.192;2022-12-29T15:02:44;1.60;;;1.05;;
40533;SDS011;26233;51.894;10.192;2022-12-29T15:05:27;1.80;;;1.10;;
40533;SDS011;26233;51.894;10.192;2022-12-29T15:08:00;1.92;;;1.10;;
40533;SDS011;26233;51.894;10.192;2022-12-29T15:10:32;2.00;;;1.30;;
40533;SDS011;26233;51.894;10.192;2022-12-29T15:13:05;1.45;;;1.23;;
40533;SDS011;26233;51.894;10.192;2022-12-29T15:15:43;1.00;;;0.90;;
40533;SDS011;26233;51.894;10.192;2022-12-29T15:18:26;1.08;;;0.88;;
40533;SDS011;26233;51.894;10.192;2022-12-29T15:20:57;1.70;;;0.90;;
40533;SDS011;26233;51.894;10.192;2022-12-29T15:23:28;1.05;;;0.90;;
40533;SDS011;26233;51.894;10.192;2022-12-29T15:25:58;1.92;;;1.08;;
40533;SDS011;26233;51.894;10.192;2022-12-29T15:28:30;1.42;;;1.05;;
40533;SDS011;26233;51.894;10.192;2022-12-29T15:31:05;1.25;;;0.98;;
40533;SDS011;26233;51.894;10.192;2022-12-29T15:33:40;1.25;;;0.80;;
40533;SDS011;26233;51.894;10.192;2022-12-29T15:36:12;1.35;;;0.90;;